Time;durP1;ratioP1;P1;durP2;ratioP2;P2;SDS_P1;SDS_P2;PMS_P1;PMS_P2;Temp;Humidity;BMP_temperature;BMP_pressure;BME280_temperature;BME280_humidity;BME280_pressure;Samples;Min_cycle;Max_cycle;Signal;HPM_P1;HPM_P2
2023/05/14 00:03:45;;;;;;;4.10;1.70;;;;;;;;;;10330240;28;20076;-52
2023/05/14 00:08:46;;;;;;;1.98;1.65;;;;;;;;;;10334507;28;20018;-53
2023/05/14 00:13:47;;;;;;;3.10;1.80;;;;;;;;;;10333703;28;20049;-54
2023/05/14 00:18:47;;;;;;;2.25;1.65;;;;;;;;;;10331849;28;20112;-52
2023/05/14 00:23:48;;;;;;;3.15;1.50;;;;;;;;;;10336256;28;20026;-53
2023/05/14 00:28:48;;;;;;;3.38;1.80;;;;;;;;;;10338903;28;20026;-53
2023/05/14 00:33:49;;;;;;;2.72;1.75;;;;;;;;;;10345909;28;20033;-52
2023/05/14 00:38:50;;;;;;;4.30;1.58;;;;;;;;;;10347459;28;20010;-53
2023/05/14 00:43:50;;;;;;;2.47;1.70;;;;;;;;;;10348341;28;20038;-54
2023/05/14 00:48:51;;;;;;;2.88;1.65;;;;;;;;;;10346965;28;20393;-54
2023/05/14 00:53:52;;;;;;;1.88;1.50;;;;;;;;;;10349510;28;20037;-54
2023/05/14 00:58:53;;;;;;;1.67;1.55;;;;;;;;;;10322164;28;20015;-53
2023/05/14 01:03:56;;;;;;;2.03;1.63;;;;;;;;;;10332355;28;20023;-53
2023/05/14 01:09:19;;;;;;;1.75;1.50;;;;;;;;;;10314183;28;20470;-52
2023/05/14 01:14:27;;;;;;;2.03;1.25;;;;;;;;;;10313091;28;20381;-54
2023/05/14 01:19:40;;;;;;;2.80;1.40;;;;;;;;;;10331932;28;20042;-54
2023/05/14 01:24:41;;;;;;;2.75;1.27;;;;;;;;;;10330757;28;20030;-54
2023/05/14 01:29:51;;;;;;;4.38;1.50;;;;;;;;;;10330718;28;20070;-54
2023/05/14 01:34:54;;;;;;;1.83;1.48;;;;;;;;;;10314450;28;20042;-52
2023/05/14 01:39:56;;;;;;;1.33;1.20;;;;;;;;;;10312287;28;20053;-55
2023/05/14 01:44:57;;;;;;;1.40;1.30;;;;;;;;;;10327431;28;20041;-53
2023/05/14 01:49:57;;;;;;;1.70;1.40;;;;;;;;;;10329191;28;20445;-54
2023/05/14 01:54:58;;;;;;;1.20;1.10;;;;;;;;;;10329357;28;20214;-54
2023/05/14 01:59:59;;;;;;;1.23;1.13;;;;;;;;;;10331155;28;20034;-54
2023/05/14 02:05:00;;;;;;;1.42;1.30;;;;;;;;;;10330080;28;20076;-53
2023/05/14 02:10:00;;;;;;;1.40;1.27;;;;;;;;;;10327925;28;20049;-55
2023/05/14 02:15:02;;;;;;;1.50;1.30;;;;;;;;;;10328598;28;20389;-55
2023/05/14 02:20:04;;;;;;;3.10;1.10;;;;;;;;;;10328555;28;20470;-54
2023/05/14 02:25:05;;;;;;;2.83;1.20;;;;;;;;;;10327403;28;20049;-54
2023/05/14 02:30:06;;;;;;;2.15;1.00;;;;;;;;;;10329064;28;20084;-54
2023/05/14 02:35:08;;;;;;;2.35;1.25;;;;;;;;;;10329219;28;20438;-53
2023/05/14 02:40:09;;;;;;;1.63;1.42;;;;;;;;;;10328188;28;20030;-51
2023/05/14 02:45:09;;;;;;;2.53;1.45;;;;;;;;;;10326910;28;20050;-54
2023/05/14 02:50:10;;;;;;;1.60;1.50;;;;;;;;;;10327370;28;20085;-54
2023/05/14 02:55:11;;;;;;;1.20;1.10;;;;;;;;;;10325275;28;20026;-53
2023/05/14 03:00:12;;;;;;;8.30;1.45;;;;;;;;;;10325293;28;20030;-53
2023/05/14 03:05:12;;;;;;;2.92;1.40;;;;;;;;;;10326656;28;20429;-52
2023/05/14 03:10:13;;;;;;;1.30;1.20;;;;;;;;;;10326802;28;20079;-52
2023/05/14 03:15:14;;;;;;;1.25;1.00;;;;;;;;;;10326814;28;20030;-54
2023/05/14 03:20:14;;;;;;;1.20;1.10;;;;;;;;;;10331019;28;20397;-54
2023/05/14 03:25:15;;;;;;;0.90;0.90;;;;;;;;;;10325567;28;20381;-53
2023/05/14 03:30:16;;;;;;;1.30;1.20;;;;;;;;;;10326958;28;20222;-54
2023/05/14 03:35:16;;;;;;;1.45;1.10;;;;;;;;;;10326246;28;20030;-53
2023/05/14 03:40:17;;;;;;;1.40;1.30;;;;;;;;;;10325305;28;20344;-50
2023/05/14 03:45:18;;;;;;;1.92;1.23;;;;;;;;;;10325961;28;20039;-52
2023/05/14 03:50:18;;;;;;;1.52;1.40;;;;;;;;;;10325385;28;20018;-54
2023/05/14 03:55:20;;;;;;;1.25;1.10;;;;;;;;;;10325856;28;20026;-54
2023/05/14 04:00:20;;;;;;;2.35;1.20;;;;;;;;;;10308491;28;20080;-49
2023/05/14 04:05:21;;;;;;;1.23;1.13;;;;;;;;;;10325818;28;20034;-49
2023/05/14 04:10:21;;;;;;;1.25;1.15;;;;;;;;;;10333725;28;20034;-54
2023/05/14 04:15:22;;;;;;;1.20;1.10;;;;;;;;;;10333714;28;20033;-53
2023/05/14 04:20:23;;;;;;;1.05;1.02;;;;;;;;;;10334010;28;20103;-50
2023/05/14 04:25:23;;;;;;;1.15;1.08;;;;;;;;;;10332347;28;20030;-53
2023/05/14 04:30:24;;;;;;;1.85;1.20;;;;;;;;;;10333340;28;20034;-52
2023/05/14 04:35:24;;;;;;;3.70;1.00;;;;;;;;;;10332767;28;20041;-51
2023/05/14 04:40:25;;;;;;;1.20;1.10;;;;;;;;;;10331583;28;20030;-52
2023/05/14 04:45:26;;;;;;;1.30;1.20;;;;;;;;;;10331741;28;20042;-56
2023/05/14 04:50:26;;;;;;;2.67;1.02;;;;;;;;;;10332448;28;20034;-52
2023/05/14 04:55:27;;;;;;;1.00;1.00;;;;;;;;;;10332364;28;20457;-52
2023/05/14 05:00:28;;;;;;;1.55;1.20;;;;;;;;;;10332508;28;20034;-50
2023/05/14 05:05:29;;;;;;;0.95;0.95;;;;;;;;;;10331864;28;20026;-50
2023/05/14 05:10:29;;;;;;;1.27;1.17;;;;;;;;;;10327385;28;20022;-50
2023/05/14 05:15:30;;;;;;;2.15;1.27;;;;;;;;;;10330479;28;20038;-52
2023/05/14 05:20:31;;;;;;;1.38;1.17;;;;;;;;;;10331369;28;20031;-53
2023/05/14 05:25:31;;;;;;;1.60;1.20;;;;;;;;;;10331491;28;20526;-50
2023/05/14 05:30:32;;;;;;;1.52;1.20;;;;;;;;;;10330969;28;20022;-52
2023/05/14 05:35:33;;;;;;;1.20;1.10;;;;;;;;;;10330667;28;20250;-52
2023/05/14 05:40:33;;;;;;;1.20;1.10;;;;;;;;;;10342202;28;20139;-53
2023/05/14 05:45:34;;;;;;;1.40;1.30;;;;;;;;;;10328821;28;20433;-53
2023/05/14 05:50:35;;;;;;;1.48;1.13;;;;;;;;;;10329661;28;20324;-53
2023/05/14 05:55:35;;;;;;;2.38;1.30;;;;;;;;;;10328512;28;20182;-52
2023/05/14 06:00:36;;;;;;;3.55;1.10;;;;;;;;;;10330105;28;20030;-54
2023/05/14 06:05:36;;;;;;;1.15;1.10;;;;;;;;;;10328986;28;20034;-52
2023/05/14 06:10:37;;;;;;;1.60;1.25;;;;;;;;;;10328539;28;20026;-50
2023/05/14 06:15:37;;;;;;;1.90;1.17;;;;;;;;;;10329056;28;20026;-54
2023/05/14 06:20:40;;;;;;;1.25;1.15;;;;;;;;;;10338226;28;20057;-54
2023/05/14 06:25:40;;;;;;;1.17;1.08;;;;;;;;;;10330555;28;20033;-53
2023/05/14 06:30:41;;;;;;;2.28;1.17;;;;;;;;;;10328002;28;20484;-53
2023/05/14 06:35:42;;;;;;;1.52;1.30;;;;;;;;;;10329177;28;20033;-53
2023/05/14 06:40:42;;;;;;;1.88;1.30;;;;;;;;;;10327858;28;20489;-53
2023/05/14 06:45:43;;;;;;;2.85;1.52;;;;;;;;;;10327414;28;20214;-53
2023/05/14 06:50:44;;;;;;;1.48;1.30;;;;;;;;;;10327500;28;20030;-53
2023/05/14 06:55:47;;;;;;;8.00;1.25;;;;;;;;;;10327214;28;20030;-54
2023/05/14 07:00:48;;;;;;;1.50;1.40;;;;;;;;;;10327611;28;20076;-53
2023/05/14 07:05:48;;;;;;;2.80;1.48;;;;;;;;;;10327314;28;20022;-52
2023/05/14 07:10:49;;;;;;;3.78;1.30;;;;;;;;;;10320028;28;20027;-49
2023/05/14 07:15:50;;;;;;;1.67;1.35;;;;;;;;;;10326704;28;20034;-47
2023/05/14 07:20:50;;;;;;;3.50;1.20;;;;;;;;;;10326839;28;20128;-48
2023/05/14 07:25:51;;;;;;;2.00;1.50;;;;;;;;;;10327035;28;20120;-49
2023/05/14 07:30:51;;;;;;;4.88;1.40;;;;;;;;;;10339572;28;20084;-52
2023/05/14 07:35:53;;;;;;;4.03;1.20;;;;;;;;;;10337678;28;20026;-54
2023/05/14 07:40:53;;;;;;;1.35;1.25;;;;;;;;;;10348238;28;20022;-53
2023/05/14 07:45:55;;;;;;;6.18;1.20;;;;;;;;;;10341202;28;20041;-50
2023/05/14 07:50:55;;;;;;;7.53;1.30;;;;;;;;;;10347015;28;20044;-52
2023/05/14 07:55:58;;;;;;;8.07;1.58;;;;;;;;;;10357978;28;20478;-48
2023/05/14 08:01:00;;;;;;;7.72;1.20;;;;;;;;;;10344738;28;20035;-50
2023/05/14 08:06:00;;;;;;;4.93;1.15;;;;;;;;;;10345294;28;20068;-49
2023/05/14 08:11:02;;;;;;;1.40;1.30;;;;;;;;;;10327137;28;20509;-51
2023/05/14 08:16:03;;;;;;;2.83;1.10;;;;;;;;;;10329192;28;20053;-49
2023/05/14 08:21:04;;;;;;;2.08;1.15;;;;;;;;;;10344268;28;20037;-48
2023/05/14 08:26:04;;;;;;;1.27;1.10;;;;;;;;;;10347704;28;20093;-51
2023/05/14 08:31:05;;;;;;;1.30;1.20;;;;;;;;;;10327128;28;20049;-53
2023/05/14 08:36:06;;;;;;;1.35;1.17;;;;;;;;;;10328904;28;20030;-51
2023/05/14 08:41:08;;;;;;;4.40;1.77;;;;;;;;;;10336164;28;20378;-60
2023/05/14 08:46:12;;;;;;;1.83;1.05;;;;;;;;;;10310888;28;20042;-52
2023/05/14 08:51:12;;;;;;;1.25;1.10;;;;;;;;;;10315027;28;20038;-51
2023/05/14 08:56:17;;;;;;;3.42;1.10;;;;;;;;;;10334514;28;20478;-51
2023/05/14 09:01:18;;;;;;;1.58;1.05;;;;;;;;;;10304364;28;20050;-49
2023/05/14 09:06:20;;;;;;;3.85;1.20;;;;;;;;;;10318670;28;20034;-52
2023/05/14 09:11:23;;;;;;;3.55;1.45;;;;;;;;;;10314450;28;20518;-50
2023/05/14 09:16:25;;;;;;;1.77;1.30;;;;;;;;;;10327660;28;20194;-49
2023/05/14 09:21:27;;;;;;;3.85;1.17;;;;;;;;;;10329071;28;20034;-58
2023/05/14 09:26:32;;;;;;;5.07;1.40;;;;;;;;;;10330887;28;20038;-52
2023/05/14 09:31:33;;;;;;;3.47;1.40;;;;;;;;;;10320534;28;20151;-60
2023/05/14 09:36:34;;;;;;;2.25;1.30;;;;;;;;;;10329432;28;20042;-50
2023/05/14 09:41:36;;;;;;;3.10;1.38;;;;;;;;;;10331657;28;20026;-52
2023/05/14 09:46:37;;;;;;;4.07;1.40;;;;;;;;;;10330974;28;20386;-52
2023/05/14 09:51:38;;;;;;;5.28;1.52;;;;;;;;;;10312955;28;20034;-57
2023/05/14 09:56:38;;;;;;;7.53;1.50;;;;;;;;;;10318994;28;20018;-49
2023/05/14 10:01:42;;;;;;;3.25;1.30;;;;;;;;;;10337299;28;20053;-55
2023/05/14 10:06:47;;;;;;;2.33;1.38;;;;;;;;;;10328599;28;20117;-48
2023/05/14 10:11:52;;;;;;;4.55;1.50;;;;;;;;;;10325893;28;20110;-51
2023/05/14 10:16:55;;;;;;;3.25;1.38;;;;;;;;;;10341683;28;20444;-51
2023/05/14 10:22:02;;;;;;;7.45;1.27;;;;;;;;;;10357184;28;20105;-54
2023/05/14 10:27:04;;;;;;;11.27;1.80;;;;;;;;;;10311363;28;20055;-47
2023/05/14 10:32:07;;;;;;;2.00;1.30;;;;;;;;;;10336340;28;20373;-47
2023/05/14 10:37:14;;;;;;;6.43;1.55;;;;;;;;;;10343850;28;20034;-52
2023/05/14 12:38:20;;;;;;;5.40;1.92;;;;;;;;;;10528815;27;20624;-58
2023/05/14 12:43:20;;;;;;;4.32;1.60;;;;;;;;;;10521768;28;20479;-58
2023/05/14 12:48:21;;;;;;;13.50;1.90;;;;;;;;;;10519936;28;20498;-60
2023/05/14 12:53:21;;;;;;;3.40;2.00;;;;;;;;;;10496144;28;20480;-59
2023/05/14 12:58:22;;;;;;;6.43;1.80;;;;;;;;;;10510984;28;20494;-59
2023/05/14 13:03:22;;;;;;;4.82;1.85;;;;;;;;;;10505623;28;20036;-59
2023/05/14 13:08:24;;;;;;;5.63;1.65;;;;;;;;;;10509964;28;20028;-59
2023/05/14 13:13:25;;;;;;;4.72;1.80;;;;;;;;;;10507023;28;20036;-61
2023/05/14 13:18:26;;;;;;;9.27;2.13;;;;;;;;;;10512213;28;20490;-58
2023/05/14 13:23:26;;;;;;;3.65;1.90;;;;;;;;;;10514099;28;20034;-58
2023/05/14 13:28:27;;;;;;;3.58;1.65;;;;;;;;;;10520626;28;20021;-58
2023/05/14 13:33:27;;;;;;;7.55;1.70;;;;;;;;;;10517807;28;20025;-59
2023/05/14 13:38:28;;;;;;;4.72;1.85;;;;;;;;;;10518827;28;20023;-58
2023/05/14 13:43:33;;;;;;;2.78;1.67;;;;;;;;;;10516475;28;20028;-58
2023/05/14 13:48:35;;;;;;;3.60;1.80;;;;;;;;;;10494520;28;20432;-58
2023/05/14 13:53:36;;;;;;;8.80;1.48;;;;;;;;;;10491158;28;20024;-58
2023/05/14 13:58:37;;;;;;;4.97;1.80;;;;;;;;;;10493159;28;20380;-58
2023/05/14 14:03:37;;;;;;;5.53;2.00;;;;;;;;;;10484450;28;20142;-58
2023/05/14 14:08:38;;;;;;;5.90;1.70;;;;;;;;;;10492327;28;20027;-59
2023/05/14 14:13:39;;;;;;;2.25;1.52;;;;;;;;;;10489044;28;20563;-58
2023/05/14 14:18:40;;;;;;;2.42;1.52;;;;;;;;;;10487326;28;20491;-58
2023/05/14 14:23:40;;;;;;;5.55;1.85;;;;;;;;;;10483872;28;20507;-58
2023/05/14 14:28:41;;;;;;;5.70;1.67;;;;;;;;;;10483441;28;20036;-57
2023/05/14 14:33:42;;;;;;;3.35;1.80;;;;;;;;;;10485303;28;20113;-59
2023/05/14 14:38:42;;;;;;;1.48;1.17;;;;;;;;;;10485197;28;20290;-59
2023/05/14 14:43:43;;;;;;;4.85;1.65;;;;;;;;;;10488135;28;20028;-59
2023/05/14 14:48:43;;;;;;;3.95;1.73;;;;;;;;;;10490405;28;20029;-60
2023/05/14 14:53:44;;;;;;;2.20;1.33;;;;;;;;;;10484580;28;20037;-60
2023/05/14 14:58:45;;;;;;;3.42;1.45;;;;;;;;;;10470248;28;20148;-58
2023/05/14 15:03:47;;;;;;;7.15;1.85;;;;;;;;;;10479263;28;20153;-58
2023/05/14 15:08:47;;;;;;;2.40;1.42;;;;;;;;;;10488277;28;20025;-58
2023/05/14 15:13:48;;;;;;;4.15;1.58;;;;;;;;;;10483865;28;20033;-58
2023/05/14 15:18:49;;;;;;;1.85;1.40;;;;;;;;;;10485442;28;20036;-58
2023/05/14 15:23:49;;;;;;;3.03;1.45;;;;;;;;;;10474610;28;20036;-60
2023/05/14 15:28:50;;;;;;;3.28;1.63;;;;;;;;;;10486924;28;20016;-57
2023/05/14 15:33:52;;;;;;;2.63;1.40;;;;;;;;;;10481527;28;20048;-57
2023/05/14 15:38:53;;;;;;;4.65;1.30;;;;;;;;;;10486795;28;20594;-58
2023/05/14 15:43:54;;;;;;;2.60;1.52;;;;;;;;;;10483698;28;20025;-58
2023/05/14 15:48:56;;;;;;;5.20;1.30;;;;;;;;;;10488272;28;20600;-58
2023/05/14 15:53:56;;;;;;;7.35;1.35;;;;;;;;;;10484966;28;20463;-59
2023/05/14 15:58:57;;;;;;;3.50;1.50;;;;;;;;;;10482186;28;20112;-59
2023/05/14 16:03:58;;;;;;;2.63;1.33;;;;;;;;;;10484807;28;20059;-57
2023/05/14 16:08:59;;;;;;;4.28;1.77;;;;;;;;;;10469607;28;20032;-59
2023/05/14 16:14:00;;;;;;;5.82;1.42;;;;;;;;;;10486381;28;20032;-58
2023/05/14 16:19:01;;;;;;;3.72;1.42;;;;;;;;;;10477320;28;20021;-58
2023/05/14 16:24:02;;;;;;;7.63;1.58;;;;;;;;;;10486845;28;20055;-59
2023/05/14 16:29:03;;;;;;;2.10;1.58;;;;;;;;;;10481381;28;20029;-57
2023/05/14 16:34:03;;;;;;;2.15;1.60;;;;;;;;;;10486132;28;20508;-61
2023/05/14 16:39:04;;;;;;;4.07;1.50;;;;;;;;;;10486516;28;20025;-57
2023/05/14 16:44:05;;;;;;;3.20;1.50;;;;;;;;;;10486836;28;20021;-57
2023/05/14 16:49:05;;;;;;;2.97;1.15;;;;;;;;;;10485162;28;20028;-57
2023/05/14 16:54:06;;;;;;;5.97;1.33;;;;;;;;;;10478083;28;20165;-58
2023/05/14 16:59:06;;;;;;;5.38;1.38;;;;;;;;;;10479268;28;20018;-57
2023/05/14 17:04:07;;;;;;;1.42;1.30;;;;;;;;;;10490153;28;20028;-57
2023/05/14 17:09:08;;;;;;;1.90;1.42;;;;;;;;;;10472886;28;20021;-58
2023/05/14 17:14:09;;;;;;;2.30;1.20;;;;;;;;;;10485752;28;20048;-58
2023/05/14 17:19:09;;;;;;;1.75;1.30;;;;;;;;;;10471223;28;20063;-57
2023/05/14 17:24:10;;;;;;;2.08;1.23;;;;;;;;;;10492631;28;20182;-57
2023/05/14 17:29:10;;;;;;;5.18;1.75;;;;;;;;;;10483872;28;20025;-57
2023/05/14 17:34:11;;;;;;;3.03;1.33;;;;;;;;;;10481015;28;20037;-57
2023/05/14 17:39:11;;;;;;;3.67;1.10;;;;;;;;;;10488496;28;20027;-57
2023/05/14 17:44:12;;;;;;;1.38;1.27;;;;;;;;;;10477383;28;20410;-57
2023/05/14 17:49:13;;;;;;;2.15;1.33;;;;;;;;;;10476782;28;20405;-58
2023/05/14 17:54:13;;;;;;;3.42;1.58;;;;;;;;;;10491076;28;20032;-57
2023/05/14 17:59:14;;;;;;;2.88;1.70;;;;;;;;;;10487418;28;20274;-58
2023/05/14 18:04:14;;;;;;;5.13;1.48;;;;;;;;;;10488668;28;20012;-57
2023/05/14 18:09:15;;;;;;;8.27;1.70;;;;;;;;;;10486591;28;20036;-57
2023/05/14 18:14:17;;;;;;;3.92;1.42;;;;;;;;;;10484972;28;20062;-58
2023/05/14 18:19:17;;;;;;;3.15;1.52;;;;;;;;;;10483727;28;20395;-57
2023/05/14 18:24:18;;;;;;;5.03;1.67;;;;;;;;;;10488705;28;20069;-58
2023/05/14 18:29:19;;;;;;;5.03;1.30;;;;;;;;;;10480307;28;20024;-57
2023/05/14 18:34:19;;;;;;;3.40;1.45;;;;;;;;;;10489524;28;20032;-57
2023/05/14 18:39:20;;;;;;;6.75;1.52;;;;;;;;;;10471568;28;20036;-57
2023/05/14 18:44:21;;;;;;;2.78;1.38;;;;;;;;;;10479275;28;20439;-58
2023/05/14 18:49:22;;;;;;;1.85;1.27;;;;;;;;;;10491002;28;20040;-58
2023/05/14 18:54:22;;;;;;;2.15;1.08;;;;;;;;;;10482286;28;20031;-57
2023/05/14 18:59:23;;;;;;;2.70;1.63;;;;;;;;;;10479038;28;20051;-57
2023/05/14 19:04:23;;;;;;;4.22;1.52;;;;;;;;;;10482292;28;20024;-58
2023/05/14 19:09:24;;;;;;;2.20;1.40;;;;;;;;;;10486711;28;20376;-58
2023/05/14 19:14:24;;;;;;;4.13;1.60;;;;;;;;;;10483674;28;20091;-57
2023/05/14 19:19:25;;;;;;;5.75;1.60;;;;;;;;;;10482799;28;20063;-57
2023/05/14 19:24:26;;;;;;;1.25;1.13;;;;;;;;;;10482231;28;20379;-58
2023/05/14 19:29:26;;;;;;;3.47;1.40;;;;;;;;;;10488488;28;20028;-58
2023/05/14 19:34:27;;;;;;;6.07;1.30;;;;;;;;;;10487231;28;20052;-57
2023/05/14 19:39:27;;;;;;;2.55;1.30;;;;;;;;;;10483839;28;20030;-57
2023/05/14 19:44:29;;;;;;;5.05;1.30;;;;;;;;;;10478304;22;20428;-64
2023/05/14 19:49:30;;;;;;;5.65;1.25;;;;;;;;;;10432418;28;20025;-62
2023/05/14 19:54:30;;;;;;;8.02;1.60;;;;;;;;;;10419029;28;20482;-63
2023/05/14 19:59:31;;;;;;;3.28;1.42;;;;;;;;;;10398230;28;20381;-63
2023/05/14 20:04:32;;;;;;;4.43;1.73;;;;;;;;;;10394927;28;20501;-63
2023/05/14 20:09:33;;;;;;;7.93;1.40;;;;;;;;;;10396435;28;20030;-63
2023/05/14 20:14:33;;;;;;;9.05;1.75;;;;;;;;;;10401178;28;20110;-63
2023/05/14 20:19:34;;;;;;;7.05;1.77;;;;;;;;;;10397763;28;20682;-63
2023/05/14 20:24:35;;;;;;;7.15;1.65;;;;;;;;;;10402249;28;20049;-63
2023/05/14 20:29:35;;;;;;;12.23;2.05;;;;;;;;;;10400469;28;20033;-63
2023/05/14 20:34:36;;;;;;;16.83;2.20;;;;;;;;;;10411430;28;20025;-63
2023/05/14 20:39:36;;;;;;;7.40;2.10;;;;;;;;;;10393285;28;20037;-63
2023/05/14 20:44:37;;;;;;;7.15;1.80;;;;;;;;;;10404481;28;20044;-63
2023/05/14 20:49:38;;;;;;;6.13;1.98;;;;;;;;;;10403753;28;20025;-64
2023/05/14 20:54:38;;;;;;;19.05;2.28;;;;;;;;;;10395596;28;20025;-65
2023/05/14 20:59:39;;;;;;;4.88;1.63;;;;;;;;;;10405658;28;20036;-63
2023/05/14 21:04:39;;;;;;;10.90;1.90;;;;;;;;;;10408541;28;20518;-63
2023/05/14 21:09:40;;;;;;;6.93;1.70;;;;;;;;;;10409989;28;20568;-63
2023/05/14 21:14:41;;;;;;;12.55;2.22;;;;;;;;;;10414234;28;20033;-62
2023/05/14 21:19:42;;;;;;;11.85;2.42;;;;;;;;;;10406484;28;20033;-64
2023/05/14 21:24:42;;;;;;;9.70;2.17;;;;;;;;;;10410080;28;20025;-66
2023/05/14 21:29:46;;;;;;;5.97;2.08;;;;;;;;;;10410947;28;20025;-64
2023/05/14 21:34:47;;;;;;;4.88;1.80;;;;;;;;;;10408783;28;20047;-63
2023/05/14 21:39:47;;;;;;;8.90;1.95;;;;;;;;;;10404781;28;20258;-62
2023/05/14 21:44:48;;;;;;;9.23;1.67;;;;;;;;;;10408201;28;20034;-63
2023/05/14 21:49:48;;;;;;;6.05;1.70;;;;;;;;;;10405720;28;20071;-63
2023/05/14 21:54:49;;;;;;;8.10;1.83;;;;;;;;;;10408089;28;20279;-65
2023/05/14 21:59:49;;;;;;;10.90;1.85;;;;;;;;;;10407232;28;20033;-59
2023/05/14 22:04:50;;;;;;;9.35;2.22;;;;;;;;;;10405596;28;20017;-60
2023/05/14 22:09:50;;;;;;;8.65;1.98;;;;;;;;;;10407550;28;20033;-59
2023/05/14 22:14:51;;;;;;;5.82;1.85;;;;;;;;;;10408400;28;20021;-60
2023/05/14 22:19:52;;;;;;;4.65;1.52;;;;;;;;;;10409100;28;20019;-60
2023/05/14 22:24:52;;;;;;;7.20;1.67;;;;;;;;;;10411033;28;20024;-60
2023/05/14 22:29:54;;;;;;;5.65;2.15;;;;;;;;;;10409369;28;20403;-60
2023/05/14 22:34:54;;;;;;;3.53;1.90;;;;;;;;;;10411771;28;20125;-60
2023/05/14 22:39:55;;;;;;;6.72;1.80;;;;;;;;;;10410699;28;20026;-60
2023/05/14 22:44:56;;;;;;;7.35;1.70;;;;;;;;;;10409846;28;20048;-60
2023/05/14 22:49:56;;;;;;;5.63;2.13;;;;;;;;;;10408203;28;20052;-60
2023/05/14 22:54:57;;;;;;;6.82;2.10;;;;;;;;;;10415946;28;20026;-60
2023/05/14 22:59:57;;;;;;;3.85;1.98;;;;;;;;;;10414034;28;20068;-60
2023/05/14 23:04:58;;;;;;;5.25;2.20;;;;;;;;;;10410059;28;20036;-60
2023/05/14 23:09:59;;;;;;;6.00;1.60;;;;;;;;;;10408958;28;20029;-60
2023/05/14 23:14:59;;;;;;;4.95;2.00;;;;;;;;;;10406326;28;20029;-62
2023/05/14 23:20:00;;;;;;;4.35;2.15;;;;;;;;;;10395295;28;20048;-60
2023/05/14 23:25:00;;;;;;;6.68;2.15;;;;;;;;;;10417630;28;20017;-60
2023/05/14 23:30:02;;;;;;;3.22;1.85;;;;;;;;;;10418179;28;20018;-60
2023/05/14 23:35:04;;;;;;;5.35;1.77;;;;;;;;;;10411255;28;20037;-60
2023/05/14 23:40:06;;;;;;;3.20;1.95;;;;;;;;;;10429265;28;20017;-60
2023/05/14 23:45:07;;;;;;;8.85;2.38;;;;;;;;;;10413601;28;20037;-60
2023/05/14 23:50:08;;;;;;;3.38;2.08;;;;;;;;;;10404222;28;20059;-61
2023/05/14 23:55:09;;;;;;;3.10;2.22;;;;;;;;;;10392500;28;20055;-61
